Shrewsbury, New Jersey
Current Conditions -  °F | °C
As of 7:35 PM on Tuesday 25 Nov 2014 (Local Time) from KBLM Reporting Station
Clear Clear  
Wind Chill: 48°   Ceiling: Unl
Heat Index: 48°   Visibility: 10mi
Dew Point: 28°   Wind: 3mph
Humidity: 46%   Direction: 250°WSW
Pressure: 30.09"   Gusts: NA
Location:  40.33°N, 74.06°W
Report Text: KBLM 260035Z AUTO 25003KT 10SM CLR 09/M02 A3009 RMK AO1
Loading
Personal Weather Stations






























Interactive Weather Map New forecast layout! Learn more

10-Day Weather Forecast

Advertisements
Track Severe Weather on mobile